sensor_id;sensor_type;location;lat;lon;timestamp;P1;durP1;ratioP1;P2;durP2;ratioP2
5569;SDS011;2808;51.240;6.794;2023-09-12T00:00:55;17.90;;;8.73;;
5569;SDS011;2808;51.240;6.794;2023-09-12T00:03:59;18.17;;;8.27;;
5569;SDS011;2808;51.240;6.794;2023-09-12T00:06:33;17.70;;;8.60;;
5569;SDS011;2808;51.240;6.794;2023-09-12T00:19:59;22.70;;;11.17;;
5569;SDS011;2808;51.240;6.794;2023-09-12T00:22:58;19.20;;;10.70;;
5569;SDS011;2808;51.240;6.794;2023-09-12T00:26:15;23.27;;;10.70;;
5569;SDS011;2808;51.240;6.794;2023-09-12T00:29:17;23.53;;;12.23;;
5569;SDS011;2808;51.240;6.794;2023-09-12T00:38:22;24.60;;;12.70;;
5569;SDS011;2808;51.240;6.794;2023-09-12T01:33:25;27.83;;;14.60;;
5569;SDS011;2808;51.240;6.794;2023-09-12T01:37:54;27.03;;;13.47;;
5569;SDS011;2808;51.240;6.794;2023-09-12T02:07:30;30.13;;;15.07;;
5569;SDS011;2808;51.240;6.794;2023-09-12T02:10:21;28.83;;;15.90;;
5569;SDS011;2808;51.240;6.794;2023-09-12T02:13:19;28.47;;;15.27;;
5569;SDS011;2808;51.240;6.794;2023-09-12T02:16:12;22.97;;;14.83;;
5569;SDS011;2808;51.240;6.794;2023-09-12T02:19:31;26.73;;;14.57;;
5569;SDS011;2808;51.240;6.794;2023-09-12T02:22:26;28.03;;;14.90;;
5569;SDS011;2808;51.240;6.794;2023-09-12T02:32:05;23.33;;;13.83;;
5569;SDS011;2808;51.240;6.794;2023-09-12T02:34:33;31.63;;;14.33;;
5569;SDS011;2808;51.240;6.794;2023-09-12T02:37:00;34.23;;;15.90;;
5569;SDS011;2808;51.240;6.794;2023-09-12T02:39:31;27.03;;;15.50;;
5569;SDS011;2808;51.240;6.794;2023-09-12T02:41:59;33.07;;;15.00;;
5569;SDS011;2808;51.240;6.794;2023-09-12T02:44:27;21.60;;;13.33;;
5569;SDS011;2808;51.240;6.794;2023-09-12T02:50:19;26.80;;;14.80;;
5569;SDS011;2808;51.240;6.794;2023-09-12T02:52:58;23.60;;;15.07;;
5569;SDS011;2808;51.240;6.794;2023-09-12T02:55:51;27.97;;;16.97;;
5569;SDS011;2808;51.240;6.794;2023-09-12T02:58:22;26.00;;;15.47;;
5569;SDS011;2808;51.240;6.794;2023-09-12T03:00:51;27.50;;;16.33;;
5569;SDS011;2808;51.240;6.794;2023-09-12T03:03:19;27.63;;;15.13;;
5569;SDS011;2808;51.240;6.794;2023-09-12T03:05:56;29.20;;;16.27;;
5569;SDS011;2808;51.240;6.794;2023-09-12T03:08:25;29.00;;;17.17;;
5569;SDS011;2808;51.240;6.794;2023-09-12T03:10:56;26.10;;;16.70;;
5569;SDS011;2808;51.240;6.794;2023-09-12T03:13:28;26.63;;;15.60;;
5569;SDS011;2808;51.240;6.794;2023-09-12T03:16:00;32.63;;;15.87;;
5569;SDS011;2808;51.240;6.794;2023-09-12T03:18:28;26.87;;;15.60;;
5569;SDS011;2808;51.240;6.794;2023-09-12T03:21:00;25.07;;;15.83;;
5569;SDS011;2808;51.240;6.794;2023-09-12T03:23:28;25.07;;;17.03;;
5569;SDS011;2808;51.240;6.794;2023-09-12T03:26:01;31.23;;;17.70;;
5569;SDS011;2808;51.240;6.794;2023-09-12T03:28:29;29.77;;;17.30;;
5569;SDS011;2808;51.240;6.794;2023-09-12T03:31:18;30.83;;;18.03;;
5569;SDS011;2808;51.240;6.794;2023-09-12T03:34:32;33.53;;;17.60;;
5569;SDS011;2808;51.240;6.794;2023-09-12T03:37:47;32.27;;;19.30;;
5569;SDS011;2808;51.240;6.794;2023-09-12T03:40:53;35.57;;;20.70;;
5569;SDS011;2808;51.240;6.794;2023-09-12T03:43:31;33.90;;;19.60;;
5569;SDS011;2808;51.240;6.794;2023-09-12T03:46:03;31.63;;;17.60;;
5569;SDS011;2808;51.240;6.794;2023-09-12T03:51:19;32.70;;;18.30;;
5569;SDS011;2808;51.240;6.794;2023-09-12T03:53:50;30.93;;;16.00;;
5569;SDS011;2808;51.240;6.794;2023-09-12T03:56:34;33.53;;;17.30;;
5569;SDS011;2808;51.240;6.794;2023-09-12T04:08:32;24.80;;;12.83;;
5569;SDS011;2808;51.240;6.794;2023-09-12T04:11:08;23.47;;;14.30;;
5569;SDS011;2808;51.240;6.794;2023-09-12T04:13:36;20.30;;;12.73;;
5569;SDS011;2808;51.240;6.794;2023-09-12T04:16:09;22.30;;;12.60;;
5569;SDS011;2808;51.240;6.794;2023-09-12T04:18:38;21.60;;;12.50;;
5569;SDS011;2808;51.240;6.794;2023-09-12T04:21:05;23.43;;;12.20;;
5569;SDS011;2808;51.240;6.794;2023-09-12T04:23:35;20.10;;;11.53;;
5569;SDS011;2808;51.240;6.794;2023-09-12T04:26:05;19.30;;;12.40;;
5569;SDS011;2808;51.240;6.794;2023-09-12T04:28:48;18.47;;;11.93;;
5569;SDS011;2808;51.240;6.794;2023-09-12T04:31:20;19.20;;;11.40;;
5569;SDS011;2808;51.240;6.794;2023-09-12T04:33:50;19.90;;;11.13;;
5569;SDS011;2808;51.240;6.794;2023-09-12T04:36:20;21.90;;;9.80;;
5569;SDS011;2808;51.240;6.794;2023-09-12T04:38:50;17.17;;;9.70;;
5569;SDS011;2808;51.240;6.794;2023-09-12T04:41:18;20.40;;;10.10;;
5569;SDS011;2808;51.240;6.794;2023-09-12T04:43:54;18.20;;;9.83;;
5569;SDS011;2808;51.240;6.794;2023-09-12T04:46:40;17.57;;;9.23;;
5569;SDS011;2808;51.240;6.794;2023-09-12T04:49:46;16.33;;;9.37;;
5569;SDS011;2808;51.240;6.794;2023-09-12T04:56:26;18.80;;;8.60;;
5569;SDS011;2808;51.240;6.794;2023-09-12T06:05:28;26.80;;;14.60;;
5569;SDS011;2808;51.240;6.794;2023-09-12T06:08:05;28.00;;;14.07;;
5569;SDS011;2808;51.240;6.794;2023-09-12T07:45:28;10.10;;;4.70;;
5569;SDS011;2808;51.240;6.794;2023-09-12T08:02:46;7.83;;;4.40;;
5569;SDS011;2808;51.240;6.794;2023-09-12T08:13:17;7.40;;;4.00;;
5569;SDS011;2808;51.240;6.794;2023-09-12T08:52:52;5.77;;;2.27;;
5569;SDS011;2808;51.240;6.794;2023-09-12T21:06:54;17.30;;;9.00;;
5569;SDS011;2808;51.240;6.794;2023-09-12T21:09:21;14.70;;;9.63;;
5569;SDS011;2808;51.240;6.794;2023-09-12T21:11:49;21.73;;;10.47;;
5569;SDS011;2808;51.240;6.794;2023-09-12T21:14:16;14.90;;;10.63;;
5569;SDS011;2808;51.240;6.794;2023-09-12T21:16:46;18.37;;;10.77;;
5569;SDS011;2808;51.240;6.794;2023-09-12T21:19:13;17.43;;;11.13;;
5569;SDS011;2808;51.240;6.794;2023-09-12T21:21:41;17.43;;;11.03;;
5569;SDS011;2808;51.240;6.794;2023-09-12T21:24:10;15.63;;;11.43;;
5569;SDS011;2808;51.240;6.794;2023-09-12T21:26:38;17.53;;;10.43;;
5569;SDS011;2808;51.240;6.794;2023-09-12T21:29:07;19.93;;;11.00;;
5569;SDS011;2808;51.240;6.794;2023-09-12T21:31:37;16.60;;;11.53;;
5569;SDS011;2808;51.240;6.794;2023-09-12T21:34:06;18.30;;;11.43;;
5569;SDS011;2808;51.240;6.794;2023-09-12T21:36:33;19.20;;;11.37;;
5569;SDS011;2808;51.240;6.794;2023-09-12T21:39:01;18.70;;;10.80;;
5569;SDS011;2808;51.240;6.794;2023-09-12T21:41:30;18.70;;;12.37;;
5569;SDS011;2808;51.240;6.794;2023-09-12T21:43:58;19.77;;;11.93;;
5569;SDS011;2808;51.240;6.794;2023-09-12T21:46:25;23.10;;;11.87;;
5569;SDS011;2808;51.240;6.794;2023-09-12T21:48:53;18.03;;;11.63;;
5569;SDS011;2808;51.240;6.794;2023-09-12T21:51:22;21.20;;;13.17;;
5569;SDS011;2808;51.240;6.794;2023-09-12T21:53:50;21.23;;;13.20;;
5569;SDS011;2808;51.240;6.794;2023-09-12T21:56:17;21.17;;;14.60;;
5569;SDS011;2808;51.240;6.794;2023-09-12T21:58:46;22.60;;;15.23;;
5569;SDS011;2808;51.240;6.794;2023-09-12T22:01:13;19.37;;;11.87;;
5569;SDS011;2808;51.240;6.794;2023-09-12T22:03:41;13.27;;;9.30;;
5569;SDS011;2808;51.240;6.794;2023-09-12T22:06:09;20.27;;;8.60;;
